createdAt,value
2022-11-21T00:01:36.336Z,77.07
2022-11-21T00:04:05.349Z,75.87
2022-11-21T00:06:34.025Z,79.17
2022-11-21T00:09:02.730Z,73.03
2022-11-21T00:11:31.612Z,79.83
2022-11-21T00:14:01.766Z,89.97
2022-11-21T00:16:30.503Z,91.83
2022-11-21T00:18:59.682Z,93.90
2022-11-21T00:21:28.396Z,88.80
2022-11-21T00:23:57.023Z,80.63
2022-11-21T00:26:25.789Z,87.17
2022-11-21T00:28:54.508Z,81.00
2022-11-21T00:31:26.319Z,83.37
2022-11-21T00:33:55.047Z,75.13
2022-11-21T00:36:23.718Z,79.90
2022-11-21T00:38:52.995Z,75.40
2022-11-21T00:41:21.678Z,76.10
2022-11-21T00:43:50.347Z,82.37
2022-11-21T00:46:18.989Z,75.40
2022-11-21T00:48:49.120Z,61.13
2022-11-21T00:51:17.875Z,77.07
2022-11-21T00:53:46.827Z,59.93
2022-11-21T00:56:15.686Z,72.07
2022-11-21T00:58:44.356Z,62.10
2022-11-21T01:01:14.734Z,73.80
2022-11-21T01:03:46.363Z,74.40
2022-11-21T01:06:17.363Z,65.47
2022-11-21T01:08:46.901Z,63.50
2022-11-21T01:11:17.711Z,54.50
2022-11-21T01:13:46.998Z,62.57
2022-11-21T01:16:17.736Z,61.67
2022-11-21T01:18:46.484Z,66.47
2022-11-21T01:21:18.477Z,53.47
2022-11-21T01:23:47.464Z,61.97
2022-11-21T01:26:18.023Z,53.50
2022-11-21T01:28:47.318Z,49.97
2022-11-21T01:31:17.634Z,54.47
2022-11-21T01:33:46.730Z,50.07
2022-11-21T01:36:19.154Z,55.83
2022-11-21T01:38:50.052Z,51.57
2022-11-21T01:41:21.223Z,50.27
2022-11-21T01:43:50.444Z,53.27
2022-11-21T01:46:20.626Z,57.50
2022-11-21T01:48:53.965Z,56.70
2022-11-21T01:51:28.582Z,54.03
2022-11-21T01:54:02.781Z,50.97
2022-11-21T01:56:35.708Z,53.93
2022-11-21T01:59:06.821Z,53.93
2022-11-21T02:01:37.749Z,53.17
2022-11-21T02:04:07.968Z,57.10
2022-11-21T02:06:39.343Z,59.63
2022-11-21T02:09:09.156Z,49.77
2022-11-21T02:11:43.740Z,70.33
2022-11-21T02:14:13.599Z,56.20
2022-11-21T02:16:42.987Z,54.33
2022-11-21T02:19:17.164Z,58.40
2022-11-21T02:21:54.205Z,55.93
2022-11-21T02:24:28.188Z,58.30
2022-11-21T02:26:59.581Z,59.53
2022-11-21T02:29:28.763Z,55.20
2022-11-21T02:32:00.654Z,56.43
2022-11-21T02:34:29.457Z,56.27
2022-11-21T02:36:58.843Z,61.00
2022-11-21T02:39:32.889Z,52.47
2022-11-21T02:42:07.007Z,58.00
2022-11-21T02:44:42.722Z,49.50
2022-11-21T02:47:11.440Z,56.50
2022-11-21T02:49:46.915Z,53.73
2022-11-21T02:52:15.582Z,56.80
2022-11-21T02:54:44.278Z,51.27
2022-11-21T02:57:14.442Z,54.40
2022-11-21T02:59:43.145Z,56.00
2022-11-21T03:02:11.807Z,49.60
2022-11-21T03:04:40.412Z,56.97
2022-11-21T03:07:09.130Z,45.87
2022-11-21T03:09:37.779Z,49.67
2022-11-21T03:12:10.456Z,49.57
2022-11-21T03:14:40.554Z,49.00
2022-11-21T03:17:09.183Z,46.40
2022-11-21T03:19:37.833Z,47.23
2022-11-21T03:22:06.565Z,48.10
2022-11-21T03:24:35.412Z,49.00
2022-11-21T03:27:04.088Z,43.87
2022-11-21T03:29:33.005Z,51.33
2022-11-21T03:32:03.039Z,41.80
2022-11-21T03:34:31.724Z,44.47
2022-11-21T03:37:00.404Z,47.60
2022-11-21T03:39:29.103Z,45.30
2022-11-21T03:41:57.924Z,48.50
2022-11-21T03:44:26.901Z,46.57
2022-11-21T03:46:55.730Z,48.27
2022-11-21T03:49:25.760Z,46.93
2022-11-21T03:51:54.396Z,45.90
2022-11-21T03:54:22.979Z,41.13
2022-11-21T03:56:52.311Z,42.57
2022-11-21T03:59:20.954Z,46.27
2022-11-21T04:01:49.698Z,43.90
2022-11-21T04:04:18.443Z,42.70
2022-11-21T04:06:48.528Z,42.63
2022-11-21T04:09:17.238Z,40.40
2022-11-21T04:11:45.912Z,42.60
2022-11-21T04:14:14.632Z,41.20
2022-11-21T04:16:43.305Z,41.27
2022-11-21T04:19:11.957Z,42.90
2022-11-21T04:21:40.620Z,45.50
2022-11-21T04:24:11.158Z,45.50
2022-11-21T04:26:39.938Z,42.60
2022-11-21T04:29:08.762Z,41.47
2022-11-21T04:31:37.425Z,41.93
2022-11-21T04:34:06.105Z,44.97
2022-11-21T04:36:34.808Z,39.23
2022-11-21T04:39:03.570Z,37.13
2022-11-21T04:41:33.697Z,43.57
2022-11-21T04:44:02.598Z,43.97
2022-11-21T04:46:31.275Z,38.13
2022-11-21T04:49:00.032Z,38.70
2022-11-21T04:51:28.712Z,44.83
2022-11-21T04:53:57.324Z,40.20
2022-11-21T04:56:26.093Z,36.60
2022-11-21T04:58:56.469Z,39.40
2022-11-21T05:01:25.282Z,40.90
2022-11-21T05:03:54.579Z,41.70
2022-11-21T05:06:23.204Z,43.60
2022-11-21T05:08:54.003Z,42.27
2022-11-21T05:11:40.005Z,40.93
2022-11-21T05:14:11.039Z,42.80
2022-11-21T05:16:39.699Z,41.47
2022-11-21T05:19:08.377Z,41.57
2022-11-21T05:21:37.014Z,41.23
2022-11-21T05:24:06.039Z,35.03
2022-11-21T05:26:38.214Z,45.27
2022-11-21T05:29:07.477Z,44.40
2022-11-21T05:31:37.536Z,46.00
2022-11-21T05:34:06.146Z,36.80
2022-11-21T05:36:34.807Z,47.30
2022-11-21T05:39:03.768Z,45.70
2022-11-21T05:41:32.513Z,44.17
2022-11-21T05:44:00.240Z,44.00
2022-11-21T05:46:29.145Z,40.70
2022-11-21T05:48:59.269Z,38.93
2022-11-21T05:51:28.312Z,38.40
2022-11-21T05:53:56.942Z,45.37
2022-11-21T05:56:25.588Z,38.90
2022-11-21T05:58:57.238Z,37.90
2022-11-21T06:01:40.165Z,29.37
2022-11-21T06:04:10.560Z,40.00
2022-11-21T06:06:39.612Z,39.80
2022-11-21T06:09:08.211Z,39.00
2022-11-21T06:11:36.832Z,39.70
2022-11-21T06:14:05.489Z,37.97
2022-11-21T06:16:34.130Z,38.27
2022-11-21T06:19:02.617Z,38.67
2022-11-21T06:21:37.517Z,43.50
2022-11-21T06:24:06.658Z,39.87
2022-11-21T06:26:35.263Z,40.50
2022-11-21T06:29:04.226Z,38.67
2022-11-21T06:31:32.867Z,41.60
2022-11-21T06:34:01.508Z,44.27
2022-11-21T06:36:30.094Z,38.70
2022-11-21T06:39:00.248Z,49.77
2022-11-21T06:41:32.167Z,38.20
2022-11-21T06:44:02.251Z,45.37
2022-11-21T06:46:37.717Z,36.97
2022-11-21T06:49:06.588Z,41.23
2022-11-21T06:51:35.491Z,41.33
2022-11-21T06:54:05.905Z,45.50
2022-11-21T06:56:34.597Z,44.40
2022-11-21T06:59:03.546Z,44.50
2022-11-21T07:01:33.179Z,38.27
2022-11-21T07:04:03.655Z,39.23
2022-11-21T07:06:32.342Z,40.63
2022-11-21T07:09:30.934Z,43.20
2022-11-21T07:11:51.158Z,36.07
2022-11-21T07:14:19.089Z,45.90
2022-11-21T07:16:47.864Z,38.20
2022-11-21T07:19:16.505Z,44.60
2022-11-21T07:21:45.448Z,45.70
2022-11-21T07:24:14.648Z,46.17
2022-11-21T07:26:43.411Z,37.60
2022-11-21T07:29:13.592Z,40.90
2022-11-21T07:31:42.432Z,44.13
2022-11-21T07:34:11.187Z,43.10
2022-11-21T07:36:40.115Z,36.00
2022-11-21T07:39:08.865Z,37.60
2022-11-21T07:41:37.948Z,37.77
2022-11-21T07:44:07.105Z,38.23
2022-11-21T07:46:37.857Z,36.50
2022-11-21T07:49:06.833Z,36.73
2022-11-21T07:51:35.633Z,40.57
2022-11-21T07:54:04.609Z,37.87
2022-11-21T07:56:33.877Z,38.60
2022-11-21T07:59:02.597Z,36.00
2022-11-21T08:01:31.648Z,38.50
2022-11-21T08:04:01.856Z,41.53
2022-11-21T08:06:31.107Z,36.20
2022-11-21T08:09:00.016Z,39.00
2022-11-21T08:11:28.832Z,36.63
2022-11-21T08:13:57.729Z,31.30
2022-11-21T08:16:28.312Z,33.40
2022-11-21T08:18:57.330Z,35.10
2022-11-21T08:21:28.636Z,32.17
2022-11-21T08:23:57.509Z,31.30
2022-11-21T08:26:26.446Z,35.83
2022-11-21T08:28:59.747Z,29.90
2022-11-21T08:31:28.826Z,31.40
2022-11-21T08:33:59.295Z,31.57
2022-11-21T08:36:29.646Z,35.27
2022-11-21T08:38:59.070Z,24.23
2022-11-21T08:41:45.066Z,24.93
2022-11-21T08:44:14.486Z,26.50
2022-11-21T08:46:43.895Z,26.60
2022-11-21T08:49:12.646Z,27.90
2022-11-21T08:51:42.989Z,25.53
2022-11-21T08:54:11.797Z,28.90
2022-11-21T08:56:40.363Z,29.00
2022-11-21T08:59:09.024Z,26.53
2022-11-21T09:01:37.880Z,22.07
2022-11-21T09:04:07.024Z,22.73
2022-11-21T09:06:36.242Z,25.47
2022-11-21T09:09:07.376Z,23.40
2022-11-21T09:11:38.928Z,21.90
2022-11-21T09:14:24.887Z,22.23
2022-11-21T09:17:11.091Z,24.93
2022-11-21T09:19:39.739Z,25.07
2022-11-21T09:22:08.360Z,21.07
2022-11-21T09:24:38.427Z,25.10
2022-11-21T09:27:07.102Z,22.27
2022-11-21T09:29:35.702Z,22.13
2022-11-21T09:32:04.460Z,22.87
2022-11-21T09:34:33.310Z,21.80
2022-11-21T09:37:02.072Z,22.17
2022-11-21T09:39:30.965Z,23.23
2022-11-21T09:42:23.099Z,21.30
2022-11-21T09:45:06.113Z,20.70
2022-11-21T09:47:38.450Z,22.90
2022-11-21T09:50:19.791Z,23.67
2022-11-21T09:52:55.126Z,19.47
2022-11-21T09:55:31.916Z,23.23
2022-11-21T09:58:06.147Z,19.43
2022-11-21T10:00:36.922Z,20.43
2022-11-21T10:03:06.756Z,20.27
2022-11-21T10:05:43.024Z,25.00
2022-11-21T10:08:24.778Z,23.67
2022-11-21T10:10:58.568Z,18.70
2022-11-21T10:13:45.666Z,17.40
2022-11-21T10:16:22.566Z,21.30
2022-11-21T10:19:25.196Z,20.60
2022-11-21T10:22:20.668Z,18.80
2022-11-21T10:24:57.366Z,15.57
2022-11-21T10:27:36.265Z,18.97
2022-11-21T10:30:08.434Z,21.10
2022-11-21T10:32:42.093Z,17.20
2022-11-21T10:35:17.629Z,15.90
2022-11-21T10:37:51.422Z,18.83
2022-11-21T10:40:34.831Z,19.23
2022-11-21T10:43:24.273Z,14.60
2022-11-21T10:45:55.306Z,17.90
2022-11-21T10:48:24.135Z,17.47
2022-11-21T10:51:09.525Z,16.00
2022-11-21T10:53:55.933Z,16.93
2022-11-21T10:56:26.791Z,17.30
2022-11-21T10:58:57.735Z,15.27
2022-11-21T11:01:30.253Z,15.03
2022-11-21T11:04:28.125Z,15.10
2022-11-21T11:07:00.416Z,16.13
2022-11-21T11:09:31.449Z,19.20
2022-11-21T11:12:52.263Z,17.40
2022-11-21T11:15:23.658Z,17.57
2022-11-21T11:18:01.393Z,18.77
2022-11-21T11:20:37.064Z,17.43
2022-11-21T11:23:25.133Z,20.17
2022-11-21T11:25:55.502Z,19.17
2022-11-21T11:28:25.715Z,16.93
2022-11-21T11:30:56.254Z,17.10
2022-11-21T11:33:37.935Z,17.73
2022-11-21T11:36:32.668Z,15.13
2022-11-21T11:39:02.937Z,17.73
2022-11-21T11:42:16.993Z,15.60
2022-11-21T11:45:17.421Z,18.43
2022-11-21T11:47:54.745Z,15.00
2022-11-21T11:50:30.725Z,17.40
2022-11-21T11:53:05.269Z,16.40
2022-11-21T11:55:38.984Z,19.33
2022-11-21T11:58:15.410Z,19.20
2022-11-21T12:00:49.171Z,21.93
2022-11-21T12:03:22.946Z,18.83
2022-11-21T12:06:09.231Z,20.10
2022-11-21T12:08:50.318Z,20.37
2022-11-21T12:11:44.440Z,14.50
2022-11-21T12:14:55.012Z,13.23
2022-11-21T12:17:32.014Z,13.43
2022-11-21T12:20:03.839Z,12.87
2022-11-21T12:22:34.098Z,13.10
2022-11-21T12:25:02.976Z,14.17
2022-11-21T12:27:33.411Z,15.73
2022-11-21T12:30:22.749Z,16.03
2022-11-21T12:33:02.299Z,20.63
2022-11-21T12:35:52.486Z,21.27
2022-11-21T12:38:45.096Z,23.10
2022-11-21T12:41:42.851Z,23.83
2022-11-21T12:44:23.487Z,24.63
2022-11-21T12:47:04.695Z,25.77
2022-11-21T12:50:02.384Z,23.00
2022-11-21T12:52:52.093Z,22.27
2022-11-21T12:55:35.573Z,18.73
2022-11-21T12:58:21.413Z,22.20
2022-11-21T13:01:07.811Z,29.00
2022-11-21T13:03:52.371Z,24.63
2022-11-21T13:06:26.055Z,28.00
2022-11-21T13:08:57.657Z,32.27
2022-11-21T13:12:00.509Z,26.10
2022-11-21T13:14:46.319Z,20.90
2022-11-21T13:17:37.714Z,22.27
2022-11-21T13:20:15.228Z,26.97
2022-11-21T13:22:59.142Z,26.70
2022-11-21T13:25:47.920Z,24.03
2022-11-21T13:28:37.974Z,24.60
2022-11-21T13:31:33.391Z,26.53
2022-11-21T13:34:02.868Z,25.87
2022-11-21T13:36:40.517Z,25.90
2022-11-21T13:39:42.166Z,21.60
2022-11-21T13:42:33.153Z,28.40
2022-11-21T13:45:39.050Z,23.17
2022-11-21T13:48:23.927Z,26.37
2022-11-21T13:51:20.183Z,23.10
2022-11-21T13:54:18.041Z,15.30
2022-11-21T13:57:04.668Z,20.90
2022-11-21T13:59:57.605Z,20.30
2022-11-21T14:02:55.203Z,26.77
2022-11-21T14:05:51.245Z,18.90
2022-11-21T14:08:22.765Z,19.87
2022-11-21T14:10:53.582Z,19.23
2022-11-21T14:13:28.887Z,22.30
2022-11-21T14:16:12.488Z,20.20
2022-11-21T14:18:45.288Z,15.83
2022-11-21T14:21:22.644Z,19.17
2022-11-21T14:23:51.350Z,21.40
2022-11-21T14:26:22.401Z,19.10
2022-11-21T14:28:52.177Z,19.93
2022-11-21T14:31:21.308Z,23.33
2022-11-21T14:33:57.551Z,26.73
2022-11-21T14:36:29.720Z,27.87
2022-11-21T14:39:35.568Z,28.70
2022-11-21T14:41:53.068Z,22.33
2022-11-21T14:44:23.772Z,26.90
2022-11-21T14:47:04.768Z,34.50
2022-11-21T14:49:35.085Z,28.87
2022-11-21T14:52:14.047Z,30.60
2022-11-21T14:55:15.014Z,29.07
2022-11-21T14:57:42.407Z,27.47
2022-11-21T15:03:20.969Z,26.37
2022-11-21T15:06:03.972Z,29.90
2022-11-21T15:09:58.947Z,30.77
2022-11-21T15:11:26.813Z,36.20
2022-11-21T15:14:19.519Z,33.00
2022-11-21T15:16:51.173Z,27.00
2022-11-21T15:19:23.306Z,31.87
2022-11-21T15:21:56.756Z,30.07
2022-11-21T15:24:37.890Z,28.50
2022-11-21T15:27:30.420Z,27.87
2022-11-21T15:30:22.427Z,26.93
2022-11-21T15:33:09.166Z,23.73
2022-11-21T15:35:56.566Z,26.50
2022-11-21T15:38:43.185Z,24.50
2022-11-21T15:41:27.750Z,28.57
2022-11-21T15:43:58.124Z,27.90
2022-11-21T15:46:29.025Z,26.20
2022-11-21T15:48:59.379Z,26.90
2022-11-21T15:51:59.742Z,30.40
2022-11-21T15:54:23.786Z,23.20
2022-11-21T15:56:52.686Z,28.37
2022-11-21T15:59:21.704Z,21.43
2022-11-21T16:01:50.633Z,20.13
2022-11-21T16:04:25.023Z,20.20
2022-11-21T16:06:54.769Z,21.70
2022-11-21T16:09:25.417Z,24.67
2022-11-21T16:11:54.158Z,19.27
2022-11-21T16:14:23.043Z,18.27
2022-11-21T16:16:51.912Z,21.77
2022-11-21T16:19:20.702Z,20.80
2022-11-21T16:21:49.487Z,20.00
2022-11-21T16:24:18.366Z,20.30
2022-11-21T16:26:49.693Z,21.60
2022-11-21T16:29:18.496Z,20.23
2022-11-21T16:31:47.571Z,22.13
2022-11-21T16:34:20.269Z,20.30
2022-11-21T16:36:50.570Z,20.97
2022-11-21T16:39:19.528Z,23.87
2022-11-21T16:41:49.725Z,24.80
2022-11-21T16:44:19.120Z,21.50
2022-11-21T16:46:49.730Z,24.67
2022-11-21T16:49:19.491Z,22.70
2022-11-21T16:51:48.528Z,31.50
2022-11-21T16:54:17.325Z,26.53
2022-11-21T16:56:47.071Z,25.67
2022-11-21T16:59:17.487Z,29.33
2022-11-21T17:01:47.396Z,25.90
2022-11-21T17:04:17.620Z,25.13
2022-11-21T17:06:49.166Z,32.00
2022-11-21T17:09:18.768Z,29.93
2022-11-21T17:11:47.561Z,30.53
2022-11-21T17:14:17.863Z,28.80
2022-11-21T17:16:46.685Z,28.47
2022-11-21T17:19:16.600Z,22.93
2022-11-21T17:21:45.524Z,23.93
2022-11-21T17:24:14.722Z,23.37
2022-11-21T17:26:43.779Z,24.87
2022-11-21T17:29:12.956Z,29.07
2022-11-21T17:31:43.830Z,28.37
2022-11-21T17:34:14.290Z,31.33
2022-11-21T17:36:44.072Z,31.20
2022-11-21T17:39:13.398Z,39.33
2022-11-21T17:41:42.791Z,25.53
2022-11-21T17:44:14.881Z,29.73
2022-11-21T17:46:45.322Z,28.67
2022-11-21T17:49:15.009Z,30.00
2022-11-21T17:51:44.356Z,27.90
2022-11-21T17:54:15.017Z,28.40
2022-11-21T17:56:47.403Z,28.90
2022-11-21T17:59:20.902Z,32.60
2022-11-21T18:01:52.225Z,32.23
2022-11-21T18:04:22.344Z,29.53
2022-11-21T18:06:51.341Z,24.50
2022-11-21T18:09:20.422Z,31.80
2022-11-21T18:11:50.018Z,32.60
2022-11-21T18:14:19.632Z,32.80
2022-11-21T18:16:53.147Z,30.30
2022-11-21T18:19:25.164Z,28.57
2022-11-21T18:21:54.376Z,33.63
2022-11-21T18:24:23.916Z,32.40
2022-11-21T18:26:53.396Z,26.33
2022-11-21T18:29:40.233Z,30.50
2022-11-21T18:32:13.295Z,27.20
2022-11-21T18:34:43.562Z,30.60
2022-11-21T18:37:13.100Z,28.23
2022-11-21T18:39:42.330Z,28.67
2022-11-21T18:42:12.666Z,36.73
2022-11-21T18:44:42.367Z,29.33
2022-11-21T18:47:20.079Z,28.67
2022-11-21T18:49:51.326Z,34.80
2022-11-21T18:52:20.540Z,32.80
2022-11-21T18:54:49.696Z,32.80
2022-11-21T18:57:19.276Z,30.20
2022-11-21T18:59:48.196Z,30.60
2022-11-21T19:02:17.553Z,24.60
2022-11-21T19:04:46.556Z,31.73
2022-11-21T19:07:17.658Z,30.20
2022-11-21T19:09:48.379Z,29.27
2022-11-21T19:12:18.514Z,28.03
2022-11-21T19:14:47.856Z,35.67
2022-11-21T19:17:17.011Z,30.63
2022-11-21T19:19:47.594Z,29.40
2022-11-21T19:22:18.733Z,30.10
2022-11-21T19:24:50.581Z,28.00
2022-11-21T19:27:26.397Z,31.17
2022-11-21T19:29:56.045Z,26.90
2022-11-21T19:32:27.132Z,31.00
2022-11-21T19:34:57.572Z,26.80
2022-11-21T19:37:28.178Z,26.30
2022-11-21T19:39:57.378Z,25.10
2022-11-21T19:42:26.212Z,28.37
2022-11-21T19:44:55.491Z,30.70
2022-11-21T19:47:25.294Z,27.40
2022-11-21T19:49:57.818Z,32.57
2022-11-21T19:52:28.772Z,42.87
2022-11-21T19:54:57.978Z,42.87
2022-11-21T19:57:27.259Z,37.97
2022-11-21T19:59:56.531Z,34.90
2022-11-21T20:02:26.127Z,38.57
2022-11-21T20:04:55.721Z,32.10
2022-11-21T20:07:26.251Z,31.17
2022-11-21T20:10:00.732Z,31.03
2022-11-21T20:12:29.738Z,29.93
2022-11-21T20:14:59.492Z,35.33
2022-11-21T20:17:42.698Z,38.67
2022-11-21T20:20:14.297Z,38.53
2022-11-21T20:22:45.011Z,34.17
2022-11-21T20:25:36.582Z,35.17
2022-11-21T20:28:28.458Z,42.07
2022-11-21T20:31:07.903Z,38.60
2022-11-21T20:33:38.201Z,34.97
2022-11-21T20:36:10.476Z,34.53
2022-11-21T20:38:42.173Z,35.97
2022-11-21T20:41:13.032Z,35.57
2022-11-21T20:44:25.191Z,33.60
2022-11-21T20:46:31.067Z,38.07
2022-11-21T20:49:04.630Z,38.47
2022-11-21T20:54:30.539Z,31.83
2022-11-21T20:57:15.645Z,27.50
2022-11-21T21:00:04.773Z,27.70
2022-11-21T21:02:35.147Z,31.77
2022-11-21T21:05:23.302Z,30.60
2022-11-21T21:07:55.458Z,28.30
2022-11-21T21:10:33.928Z,30.83
2022-11-21T21:13:24.046Z,27.50
2022-11-21T21:15:59.974Z,31.60
2022-11-21T21:18:32.044Z,28.93
2022-11-21T21:21:17.007Z,24.77
2022-11-21T21:23:50.163Z,29.43
2022-11-21T21:26:20.593Z,28.87
2022-11-21T21:28:56.458Z,27.53
2022-11-21T21:31:27.836Z,24.87
2022-11-21T21:34:02.082Z,19.43
2022-11-21T21:36:37.058Z,25.60
2022-11-21T21:39:10.582Z,23.43
2022-11-21T21:41:49.096Z,28.33
2022-11-21T21:44:21.413Z,28.50
2022-11-21T21:46:52.810Z,32.93
2022-11-21T21:49:21.639Z,34.03
2022-11-21T21:51:55.522Z,40.10
2022-11-21T21:54:29.373Z,39.60
2022-11-21T21:57:00.517Z,37.87
2022-11-21T21:59:37.898Z,38.03
2022-11-21T22:02:12.975Z,39.70
2022-11-21T22:04:41.723Z,42.30
2022-11-21T22:07:10.692Z,40.80
2022-11-21T22:09:39.377Z,38.70
2022-11-21T22:12:08.228Z,43.90
2022-11-21T22:14:38.416Z,38.97
2022-11-21T22:17:07.109Z,43.07
2022-11-21T22:19:35.861Z,39.70
2022-11-21T22:22:04.546Z,38.80
2022-11-21T22:24:33.233Z,39.90
2022-11-21T22:27:01.946Z,37.93
2022-11-21T22:29:30.607Z,38.20
2022-11-21T22:32:00.825Z,38.83
2022-11-21T22:34:29.966Z,40.57
2022-11-21T22:36:58.881Z,38.23
2022-11-21T22:39:27.765Z,39.00
2022-11-21T22:41:59.857Z,37.43
2022-11-21T22:44:29.234Z,35.90
2022-11-21T22:46:59.928Z,36.70
2022-11-21T22:49:28.666Z,36.87
2022-11-21T22:51:57.403Z,38.47
2022-11-21T22:54:26.256Z,34.30
2022-11-21T22:56:55.066Z,37.07
2022-11-21T22:59:23.774Z,36.97
2022-11-21T23:01:52.500Z,36.33
2022-11-21T23:04:22.677Z,33.27
2022-11-21T23:06:51.382Z,34.97
2022-11-21T23:09:20.119Z,35.97
2022-11-21T23:11:48.867Z,31.63
2022-11-21T23:14:18.128Z,36.57
2022-11-21T23:16:46.855Z,33.17
2022-11-21T23:19:15.469Z,33.70
2022-11-21T23:21:45.875Z,37.70
2022-11-21T23:24:14.610Z,37.63
2022-11-21T23:26:43.343Z,37.63
2022-11-21T23:29:12.077Z,35.93
2022-11-21T23:31:40.949Z,37.70
2022-11-21T23:34:11.393Z,30.73
2022-11-21T23:36:40.455Z,40.80
2022-11-21T23:39:10.619Z,36.27
2022-11-21T23:41:39.324Z,29.10
2022-11-21T23:44:08.180Z,38.40
2022-11-21T23:46:36.914Z,40.60
2022-11-21T23:49:05.869Z,36.30
2022-11-21T23:51:34.599Z,32.97
2022-11-21T23:54:03.364Z,41.10
2022-11-21T23:56:33.540Z,42.40
2022-11-21T23:59:02.356Z,40.57
